KHOU

William P Hobby Airport

Houston, Texas, USA
METAR KHOU 190453Z 21004KT 10SM SCT250 27/23 A2994 RMK AO2 SLP141 T02720233
Observed Flight Rules
Sep-19 @ 04:53 UTC (35 minutes ago) Visual Flight Rules
Wind Visibility Clouds
210° at 4 knots 10 miles
  • Scattered at 25,000' AGL
Temperatures Readings
Current 27°C / 81°F
Dewpoint 23°C / 73°F
Humidity 79%
Altimeter 29.94" Hg
Pressure 1014.1 hPa
Elevation 36
METAR KHOU 190453Z 21004KT 10SM SCT250 27/23 A2994 RMK AO2 SLP141 T02720233
Observed Flight Rules
Sep-19 @ 04:53 UTC
(35 minutes ago)
VFR
Wind Visibility
210° at 4 knots 10 miles
Clouds
  • Scattered at 25,000' AGL
Temperature Dewpoint
27°C / 81°F 23°C / 73°F
Humidity Altimeter Pressure
79% 29.94" Hg 1014.1 hPa